createdAt,value
2022-11-03T00:00:41.360Z,101248.91
2022-11-03T00:03:09.232Z,101217.28
2022-11-03T00:06:06.450Z,101228.84
2022-11-03T00:08:53.400Z,101224.50
2022-11-03T00:11:24.524Z,101207.25
2022-11-03T00:13:57.995Z,101206.91
2022-11-03T00:16:31.568Z,101207.09
2022-11-03T00:19:02.897Z,101208.00
2022-11-03T00:21:33.357Z,101209.16
2022-11-03T00:24:12.765Z,101199.56
2022-11-03T00:26:56.950Z,101193.09
2022-11-03T00:29:44.854Z,101197.31
2022-11-03T00:32:44.849Z,101179.41
2022-11-03T00:35:34.476Z,101175.63
2022-11-03T00:38:06.200Z,101182.63
2022-11-03T00:40:46.635Z,101170.22
2022-11-03T00:43:24.680Z,101167.88
2022-11-03T00:45:57.769Z,101156.47
2022-11-03T00:48:32.816Z,101156.47
2022-11-03T00:51:33.584Z,101174.00
2022-11-03T00:54:21.819Z,101153.25
2022-11-03T00:56:54.235Z,101162.38
2022-11-03T00:59:30.139Z,101140.72
2022-11-03T01:02:11.648Z,101149.47
2022-11-03T01:05:21.577Z,101161.56
2022-11-03T01:08:14.350Z,101146.94
2022-11-03T01:11:05.479Z,101139.44
2022-11-03T01:13:34.400Z,101132.69
2022-11-03T01:16:11.508Z,101134.03
2022-11-03T01:18:42.459Z,101129.13
2022-11-03T01:21:19.972Z,101109.03
2022-11-03T01:23:49.518Z,101113.34
2022-11-03T01:26:21.920Z,101116.31
2022-11-03T01:28:51.471Z,101121.56
2022-11-03T01:31:28.030Z,101119.41
2022-11-03T01:33:59.120Z,101108.56
2022-11-03T01:36:26.614Z,101106.22
2022-11-03T01:38:58.073Z,101104.97
2022-11-03T01:41:38.251Z,101088.63
2022-11-03T01:44:16.561Z,101103.34
2022-11-03T01:47:15.303Z,101097.59
2022-11-03T01:50:05.690Z,101100.91
2022-11-03T01:52:47.521Z,101088.25
2022-11-03T01:55:19.796Z,101071.66
2022-11-03T01:57:56.648Z,101086.47
2022-11-03T02:00:29.121Z,101061.47
2022-11-03T02:02:56.764Z,101067.78
2022-11-03T02:05:26.806Z,101063.72
2022-11-03T02:10:37.579Z,101076.91
2022-11-03T02:13:16.506Z,101060.03
2022-11-03T02:15:48.781Z,101068.16
2022-11-03T02:18:19.815Z,101051.81
2022-11-03T02:20:54.010Z,101037.19
2022-11-03T02:23:33.275Z,101048.19
2022-11-03T02:26:01.048Z,101038.91
2022-11-03T02:28:32.685Z,101034.50
2022-11-03T02:31:38.593Z,101043.97
2022-11-03T02:34:19.720Z,101023.56
2022-11-03T02:36:51.799Z,101019.59
2022-11-03T02:39:30.048Z,101017.16
2022-11-03T02:41:59.200Z,101022.94
2022-11-03T02:44:28.087Z,101000.13
2022-11-03T02:46:59.246Z,101009.31
2022-11-03T02:49:28.799Z,100994.06
2022-11-03T02:52:02.715Z,101009.22
2022-11-03T02:54:38.583Z,100988.13
2022-11-03T02:57:13.776Z,100983.63
2022-11-03T02:59:54.478Z,100966.91
2022-11-03T03:02:28.385Z,100981.22
2022-11-03T03:04:59.848Z,100993.34
2022-11-03T03:07:34.229Z,100971.59
2022-11-03T03:10:12.739Z,100980.78
2022-11-03T03:12:48.536Z,100969.50
2022-11-03T03:15:17.840Z,100974.81
2022-11-03T03:17:50.961Z,100945.50
2022-11-03T03:20:43.539Z,100942.88
2022-11-03T03:23:23.226Z,100961.16
2022-11-03T03:26:01.358Z,100946.22
2022-11-03T03:28:41.763Z,100923.75
2022-11-03T03:31:14.747Z,100927.97
2022-11-03T03:33:47.620Z,100922.31
2022-11-03T03:36:18.803Z,100928.50
2022-11-03T03:38:55.408Z,100904.00
2022-11-03T03:41:24.795Z,100924.44
2022-11-03T03:43:57.970Z,100930.00
2022-11-03T03:46:37.000Z,100916.97
2022-11-03T03:49:05.640Z,100923.28
2022-11-03T03:51:34.066Z,100918.28
2022-11-03T03:54:01.324Z,100909.91
2022-11-03T03:56:40.128Z,100911.16
2022-11-03T03:59:07.525Z,100908.69
2022-11-03T04:01:35.165Z,100918.47
2022-11-03T04:04:02.114Z,100913.44
2022-11-03T04:06:32.015Z,100914.16
2022-11-03T04:08:59.068Z,100909.31
2022-11-03T04:11:44.748Z,100904.06
2022-11-03T04:14:30.560Z,100906.94
2022-11-03T04:17:16.337Z,100893.47
2022-11-03T04:20:01.713Z,100889.44
2022-11-03T04:22:32.144Z,100889.88
2022-11-03T04:25:03.188Z,100905.72
2022-11-03T04:27:41.095Z,100880.66
2022-11-03T04:30:16.871Z,100902.72
2022-11-03T04:32:46.598Z,100903.72
2022-11-03T04:35:24.784Z,100894.25
2022-11-03T04:37:59.055Z,100886.75
2022-11-03T04:40:29.463Z,100889.38
2022-11-03T04:43:00.501Z,100883.16
2022-11-03T04:45:34.154Z,100886.66
2022-11-03T04:48:10.286Z,100854.47
2022-11-03T04:50:37.294Z,100865.44
2022-11-03T04:53:10.582Z,100854.22
2022-11-03T04:55:42.986Z,100862.31
2022-11-03T04:58:36.954Z,100869.63
2022-11-03T05:01:04.756Z,100863.19
2022-11-03T05:03:43.281Z,100846.34
2022-11-03T05:06:31.442Z,100858.75
2022-11-03T05:09:08.010Z,100827.16
2022-11-03T05:11:42.900Z,100838.78
2022-11-03T05:14:22.283Z,100841.00
2022-11-03T05:16:51.367Z,100840.88
2022-11-03T05:19:20.878Z,100835.75
2022-11-03T05:21:50.276Z,100810.72
2022-11-03T05:24:20.839Z,100810.09
2022-11-03T05:26:49.754Z,100809.69
2022-11-03T05:29:21.492Z,100798.22
2022-11-03T05:31:53.759Z,100807.94
2022-11-03T05:34:27.365Z,100834.63
2022-11-03T05:36:54.331Z,100814.44
2022-11-03T05:39:21.451Z,100816.06
2022-11-03T05:41:52.474Z,100793.00
2022-11-03T05:44:37.113Z,100791.06
2022-11-03T05:47:18.948Z,100776.53
2022-11-03T05:49:47.239Z,100778.72
2022-11-03T05:52:21.705Z,100797.19
2022-11-03T05:54:53.999Z,100784.22
2022-11-03T05:57:21.447Z,100799.19
2022-11-03T05:59:54.111Z,100783.69
2022-11-03T06:02:36.087Z,100782.84
2022-11-03T06:05:18.755Z,100754.59
2022-11-03T06:07:46.903Z,100744.75
2022-11-03T06:10:36.811Z,100754.78
2022-11-03T06:13:22.749Z,100753.59
2022-11-03T06:15:56.685Z,100759.75
2022-11-03T06:18:29.869Z,100757.13
2022-11-03T06:21:07.963Z,100757.53
2022-11-03T06:23:36.807Z,100748.72
2022-11-03T06:26:05.681Z,100740.47
2022-11-03T06:28:38.115Z,100742.25
2022-11-03T06:31:16.637Z,100724.91
2022-11-03T06:33:49.343Z,100725.78
2022-11-03T06:36:22.798Z,100740.19
2022-11-03T06:39:20.095Z,100744.03
2022-11-03T06:41:47.417Z,100738.00
2022-11-03T06:44:28.526Z,100711.88
2022-11-03T06:47:15.336Z,100711.88
2022-11-03T06:49:43.610Z,100723.47
2022-11-03T06:52:26.148Z,100732.78
2022-11-03T06:55:17.248Z,100732.00
2022-11-03T06:57:48.636Z,100728.81
2022-11-03T07:00:35.445Z,100704.97
2022-11-03T07:03:11.492Z,100699.31
2022-11-03T07:05:42.197Z,100710.44
2022-11-03T07:08:19.556Z,100713.88
2022-11-03T07:10:46.558Z,100699.31
2022-11-03T07:13:18.114Z,100721.22
2022-11-03T07:15:48.488Z,100719.41
2022-11-03T07:18:28.994Z,100701.47
2022-11-03T07:21:00.672Z,100697.84
2022-11-03T07:23:30.635Z,100698.63
2022-11-03T07:26:02.202Z,100692.63
2022-11-03T07:28:39.946Z,100703.13
2022-11-03T07:31:17.314Z,100701.72
2022-11-03T07:33:44.491Z,100711.81
2022-11-03T07:36:18.554Z,100710.00
2022-11-03T07:38:52.867Z,100710.03
2022-11-03T07:41:29.520Z,100697.28
2022-11-03T07:44:02.590Z,100720.75
2022-11-03T07:46:31.944Z,100711.63
2022-11-03T07:49:02.851Z,100724.75
2022-11-03T07:51:35.758Z,100712.03
2022-11-03T07:54:08.642Z,100715.91
2022-11-03T07:56:44.655Z,100698.75
2022-11-03T07:59:19.205Z,100686.44
2022-11-03T08:02:00.526Z,100672.53
2022-11-03T08:04:37.899Z,100689.88
2022-11-03T08:07:05.193Z,100663.88
2022-11-03T08:09:32.210Z,100678.22
2022-11-03T08:12:02.583Z,100645.94
2022-11-03T08:14:32.131Z,100649.56
2022-11-03T08:17:00.240Z,100644.72
2022-11-03T08:19:30.969Z,100632.59
2022-11-03T08:21:57.833Z,100647.13
2022-11-03T08:24:24.819Z,100639.25
2022-11-03T08:26:52.317Z,100623.28
2022-11-03T08:29:19.600Z,100623.47
2022-11-03T08:31:49.295Z,100609.56
2022-11-03T08:34:16.515Z,100606.31
2022-11-03T08:36:57.293Z,100586.94
2022-11-03T08:39:28.160Z,100587.13
2022-11-03T08:41:57.972Z,100602.28
2022-11-03T08:44:35.284Z,100582.06
2022-11-03T08:47:18.794Z,100559.63
2022-11-03T08:49:56.353Z,100558.44
2022-11-03T08:52:41.154Z,100544.50
2022-11-03T08:55:29.101Z,100566.66
2022-11-03T08:58:01.835Z,100528.13
2022-11-03T09:00:37.043Z,100538.19
2022-11-03T09:03:08.530Z,100528.69
2022-11-03T09:05:37.867Z,100514.34
2022-11-03T09:10:55.002Z,100487.25
2022-11-03T09:13:25.732Z,100492.28
2022-11-03T09:15:52.934Z,100479.94
2022-11-03T09:18:22.790Z,100464.84
2022-11-03T09:20:52.392Z,100482.53
2022-11-03T09:23:22.189Z,100443.22
2022-11-03T09:25:49.549Z,100440.09
2022-11-03T09:28:16.466Z,100446.19
2022-11-03T09:30:45.698Z,100440.00
2022-11-03T09:33:12.756Z,100435.41
2022-11-03T09:35:40.712Z,100435.16
2022-11-03T09:38:11.342Z,100445.38
2022-11-03T09:40:41.375Z,100439.66
2022-11-03T09:43:13.806Z,100451.47
2022-11-03T09:45:43.781Z,100435.59
2022-11-03T09:48:13.269Z,100421.72
2022-11-03T09:50:41.040Z,100420.25
2022-11-03T09:53:13.711Z,100418.59
2022-11-03T09:55:44.132Z,100408.72
2022-11-03T09:58:15.104Z,100401.88
2022-11-03T10:00:44.129Z,100405.41
2022-11-03T10:03:19.892Z,100396.34
2022-11-03T10:05:48.547Z,100404.09
2022-11-03T10:08:31.430Z,100390.19
2022-11-03T10:11:01.158Z,100395.91
2022-11-03T10:13:40.956Z,100388.91
2022-11-03T10:17:11.145Z,100405.81
2022-11-03T10:19:39.385Z,100389.00
2022-11-03T10:22:10.837Z,100371.44
2022-11-03T10:24:48.928Z,100378.59
2022-11-03T10:27:27.172Z,100337.84
2022-11-03T10:30:13.039Z,100350.41
2022-11-03T10:32:42.842Z,100343.69
2022-11-03T10:35:32.926Z,100368.06
2022-11-03T10:38:30.616Z,100359.03
2022-11-03T10:41:11.883Z,100348.88
2022-11-03T10:43:46.098Z,100340.66
2022-11-03T10:46:37.002Z,100355.34
2022-11-03T10:49:18.914Z,100330.03
2022-11-03T10:51:50.600Z,100328.00
2022-11-03T10:54:19.875Z,100354.31
2022-11-03T10:56:53.877Z,100316.09
2022-11-03T10:59:43.851Z,100318.31
2022-11-03T11:02:24.371Z,100321.97
2022-11-03T11:05:01.834Z,100304.34
2022-11-03T11:07:32.949Z,100319.88
2022-11-03T11:10:12.074Z,100303.94
2022-11-03T11:13:22.148Z,100290.22
2022-11-03T11:15:53.292Z,100296.63
2022-11-03T11:18:45.657Z,100287.34
2022-11-03T11:21:35.756Z,100279.09
2022-11-03T11:24:35.926Z,100278.84
2022-11-03T11:27:35.337Z,100259.28
2022-11-03T11:30:25.232Z,100261.91
2022-11-03T11:33:01.199Z,100252.28
2022-11-03T11:35:28.355Z,100262.63
2022-11-03T11:38:38.710Z,100245.75
2022-11-03T11:41:05.926Z,100219.31
2022-11-03T11:43:32.974Z,100228.25
2022-11-03T11:46:24.672Z,100222.66
2022-11-03T11:48:57.142Z,100205.88
2022-11-03T11:51:25.917Z,100183.78
2022-11-03T11:54:17.619Z,100164.78
2022-11-03T11:56:48.911Z,100179.50
2022-11-03T11:59:24.295Z,100169.00
2022-11-03T12:01:57.661Z,100160.03
2022-11-03T12:04:33.543Z,100162.38
2022-11-03T12:07:03.776Z,100148.25
2022-11-03T12:09:32.773Z,100133.25
2022-11-03T12:12:09.229Z,100143.25
2022-11-03T12:14:55.175Z,100146.34
2022-11-03T12:17:22.986Z,100136.72
2022-11-03T12:19:53.123Z,100126.94
2022-11-03T12:22:27.308Z,100134.78
2022-11-03T12:24:55.856Z,100113.16
2022-11-03T12:27:29.321Z,100126.78
2022-11-03T12:30:00.885Z,100120.03
2022-11-03T12:32:33.371Z,100086.31
2022-11-03T12:35:06.862Z,100085.59
2022-11-03T12:37:40.365Z,100090.34
2022-11-03T12:40:08.054Z,100082.06
2022-11-03T12:42:36.373Z,100087.03
2022-11-03T12:45:04.137Z,100074.63
2022-11-03T12:47:31.301Z,100073.16
2022-11-03T12:50:00.348Z,100069.75
2022-11-03T12:52:30.622Z,100066.91
2022-11-03T12:55:00.639Z,100057.50
2022-11-03T12:57:29.605Z,100055.59
2022-11-03T12:59:58.813Z,100056.56
2022-11-03T13:02:33.913Z,100039.72
2022-11-03T13:05:01.736Z,100033.16
2022-11-03T13:07:34.550Z,100011.34
2022-11-03T13:10:02.052Z,100012.16
2022-11-03T13:12:32.179Z,100027.66
2022-11-03T13:15:00.193Z,100019.50
2022-11-03T13:17:32.271Z,99992.34
2022-11-03T13:22:42.599Z,99995.94
2022-11-03T13:25:09.808Z,100001.13
2022-11-03T13:27:38.626Z,99984.56
2022-11-03T13:30:07.885Z,99992.47
2022-11-03T13:32:36.891Z,99981.16
2022-11-03T13:35:08.135Z,99960.94
2022-11-03T13:37:38.592Z,99965.41
2022-11-03T13:40:19.181Z,99985.53
2022-11-03T13:42:57.329Z,99958.34
2022-11-03T13:45:34.282Z,99957.00
2022-11-03T13:50:56.344Z,99948.22
2022-11-03T13:56:21.203Z,99963.13
2022-11-03T14:01:41.948Z,99930.19
2022-11-03T14:06:56.514Z,99941.97
2022-11-03T14:09:23.763Z,99920.94
2022-11-03T14:12:10.837Z,99927.69
2022-11-03T14:14:40.113Z,99934.09
2022-11-03T14:17:07.350Z,99934.00
2022-11-03T14:19:39.815Z,99932.19
2022-11-03T14:22:10.124Z,99926.25
2022-11-03T14:24:36.984Z,99909.91
2022-11-03T14:27:04.060Z,99916.78
2022-11-03T14:29:33.671Z,99903.41
2022-11-03T14:32:03.451Z,99883.63
2022-11-03T14:34:30.368Z,99884.88
2022-11-03T14:36:57.595Z,99889.13
2022-11-03T14:39:24.545Z,99881.22
2022-11-03T14:42:05.957Z,99885.78
2022-11-03T14:44:35.161Z,99878.00
2022-11-03T14:47:04.114Z,99883.84
2022-11-03T14:49:32.452Z,99876.19
2022-11-03T14:52:01.646Z,99880.19
2022-11-03T14:54:30.584Z,99867.38
2022-11-03T14:56:57.665Z,99876.41
2022-11-03T14:59:25.593Z,99874.22
2022-11-03T15:01:54.416Z,99890.91
2022-11-03T15:04:22.499Z,99874.81
2022-11-03T15:06:54.139Z,99854.69
2022-11-03T15:09:21.006Z,99857.19
2022-11-03T15:11:52.152Z,99870.00
2022-11-03T15:14:22.166Z,99851.81
2022-11-03T15:16:48.931Z,99842.69
2022-11-03T15:19:16.111Z,99836.31
2022-11-03T15:21:42.871Z,99803.88
2022-11-03T15:26:59.890Z,99822.81
2022-11-03T15:29:26.820Z,99812.94
2022-11-03T15:31:53.856Z,99822.13
2022-11-03T15:34:20.786Z,99820.19
2022-11-03T15:36:47.892Z,99791.34
2022-11-03T15:39:14.728Z,99793.44
2022-11-03T15:41:41.826Z,99802.00
2022-11-03T15:44:08.921Z,99792.53
2022-11-03T15:46:38.211Z,99795.03
2022-11-03T15:49:04.992Z,99781.56
2022-11-03T15:51:31.996Z,99762.69
2022-11-03T15:53:59.493Z,99779.72
2022-11-03T15:56:27.511Z,99767.50
2022-11-03T15:58:56.461Z,99753.81
2022-11-03T16:01:24.175Z,99749.34
2022-11-03T16:03:51.597Z,99748.22
2022-11-03T16:06:18.518Z,99771.97
2022-11-03T16:08:45.210Z,99775.44
2022-11-03T16:11:12.264Z,99760.00
2022-11-03T16:13:39.629Z,99753.59
2022-11-03T16:16:08.424Z,99749.94
2022-11-03T16:18:35.368Z,99769.16
2022-11-03T16:21:02.217Z,99755.53
2022-11-03T16:23:28.976Z,99753.00
2022-11-03T16:25:55.983Z,99754.38
2022-11-03T16:28:25.228Z,99725.56
2022-11-03T16:30:54.703Z,99748.16
2022-11-03T16:33:22.327Z,99761.06
2022-11-03T16:35:59.627Z,99742.22
2022-11-03T16:38:30.277Z,99734.75
2022-11-03T16:41:08.324Z,99728.66
2022-11-03T16:43:37.748Z,99743.50
2022-11-03T16:46:07.048Z,99734.31
2022-11-03T16:48:36.629Z,99732.41
2022-11-03T16:51:03.974Z,99745.16
2022-11-03T16:53:31.463Z,99756.75
2022-11-03T16:55:58.929Z,99739.94
2022-11-03T16:58:25.946Z,99745.09
2022-11-03T17:00:53.122Z,99739.88
2022-11-03T17:03:22.700Z,99722.47
2022-11-03T17:08:52.344Z,99730.91
2022-11-03T17:11:40.469Z,99737.34
2022-11-03T17:14:19.114Z,99733.47
2022-11-03T17:16:47.501Z,99712.56
2022-11-03T17:19:15.679Z,99713.44
2022-11-03T17:21:44.853Z,99719.38
2022-11-03T17:24:14.067Z,99704.66
2022-11-03T17:26:57.751Z,99722.44
2022-11-03T17:29:38.906Z,99701.88
2022-11-03T17:32:25.265Z,99712.28
2022-11-03T17:34:56.074Z,99699.91
2022-11-03T17:37:25.538Z,99685.88
2022-11-03T17:40:01.418Z,99694.09
2022-11-03T17:42:28.919Z,99702.97
2022-11-03T17:44:59.598Z,99693.56
2022-11-03T17:47:27.129Z,99699.03
2022-11-03T17:49:54.211Z,99690.25
2022-11-03T17:52:28.355Z,99677.34
2022-11-03T17:54:59.023Z,99687.88
2022-11-03T17:57:27.068Z,99704.69
2022-11-03T17:59:59.001Z,99698.28
2022-11-03T18:02:31.934Z,99697.34
2022-11-03T18:05:38.278Z,99702.81
2022-11-03T18:08:13.277Z,99710.81
2022-11-03T18:10:43.474Z,99687.97
2022-11-03T18:13:30.024Z,99685.72
2022-11-03T18:16:19.362Z,99705.13
2022-11-03T18:18:51.517Z,99698.75
2022-11-03T18:21:24.996Z,99686.34
2022-11-03T18:24:09.084Z,99703.13
2022-11-03T18:26:55.709Z,99693.19
2022-11-03T18:29:23.677Z,99699.19
2022-11-03T18:31:51.020Z,99703.53
2022-11-03T18:34:25.838Z,99685.34
2022-11-03T18:36:55.650Z,99705.88
2022-11-03T18:39:32.354Z,99694.88
2022-11-03T18:42:05.418Z,99688.69
2022-11-03T18:44:34.607Z,99671.47
2022-11-03T18:47:02.684Z,99676.91
2022-11-03T18:49:33.214Z,99668.47
2022-11-03T18:52:15.861Z,99683.63
2022-11-03T18:54:50.399Z,99655.81
2022-11-03T18:57:22.909Z,99664.16
2022-11-03T18:59:50.182Z,99638.50
2022-11-03T19:02:30.661Z,99667.91
2022-11-03T19:04:58.013Z,99659.16
2022-11-03T19:07:30.436Z,99648.03
2022-11-03T19:09:57.836Z,99648.03
2022-11-03T19:12:24.797Z,99641.28
2022-11-03T19:14:52.110Z,99640.84
2022-11-03T19:17:24.814Z,99650.22
2022-11-03T19:19:53.033Z,99663.91
2022-11-03T19:22:23.316Z,99653.44
2022-11-03T19:24:50.185Z,99639.59
2022-11-03T19:27:26.593Z,99645.34
2022-11-03T19:29:54.735Z,99643.75
2022-11-03T19:32:28.132Z,99642.97
2022-11-03T19:35:01.687Z,99637.34
2022-11-03T19:37:35.407Z,99642.97
2022-11-03T19:40:12.048Z,99646.50
2022-11-03T19:42:39.715Z,99651.44
2022-11-03T19:45:14.662Z,99652.31
2022-11-03T19:48:10.748Z,99647.38
2022-11-03T19:50:38.826Z,99650.16
2022-11-03T19:53:16.264Z,99653.28
2022-11-03T19:55:43.244Z,99657.63
2022-11-03T19:58:16.449Z,99652.28
2022-11-03T20:00:46.367Z,99660.06
2022-11-03T20:03:14.722Z,99655.97
2022-11-03T20:05:46.602Z,99623.66
2022-11-03T20:08:19.165Z,99634.72
2022-11-03T20:10:49.285Z,99636.59
2022-11-03T20:13:19.278Z,99639.97
2022-11-03T20:15:46.909Z,99651.75
2022-11-03T20:18:14.552Z,99631.53
2022-11-03T20:20:45.077Z,99638.22
2022-11-03T20:23:23.496Z,99633.88
2022-11-03T20:25:50.568Z,99635.03
2022-11-03T20:28:23.309Z,99637.44
2022-11-03T20:30:55.174Z,99643.91
2022-11-03T20:33:25.023Z,99640.13
2022-11-03T20:35:53.912Z,99654.28
2022-11-03T20:38:22.883Z,99651.81
2022-11-03T20:40:55.700Z,99661.47
2022-11-03T20:43:44.368Z,99664.63
2022-11-03T20:46:32.764Z,99680.03
2022-11-03T20:49:00.513Z,99690.28
2022-11-03T20:51:32.117Z,99692.91
2022-11-03T20:53:59.808Z,99703.78
2022-11-03T20:56:28.734Z,99703.91
2022-11-03T20:58:57.213Z,99698.78
2022-11-03T21:01:43.527Z,99718.38
2022-11-03T21:04:17.250Z,99716.19
2022-11-03T21:06:46.583Z,99724.09
2022-11-03T21:09:15.724Z,99719.97
2022-11-03T21:11:45.112Z,99737.41
2022-11-03T21:14:22.152Z,99770.03
2022-11-03T21:17:07.380Z,99788.38
2022-11-03T21:19:57.707Z,99816.16
2022-11-03T21:22:57.674Z,99796.28
2022-11-03T21:25:25.443Z,99801.66
2022-11-03T21:27:55.335Z,99795.22
2022-11-03T21:30:24.981Z,99788.22
2022-11-03T21:32:51.807Z,99788.81
2022-11-03T21:35:20.960Z,99795.44
2022-11-03T21:37:52.200Z,99800.19
2022-11-03T21:40:19.423Z,99797.00
2022-11-03T21:43:06.053Z,99822.31
2022-11-03T21:45:37.468Z,99773.75
2022-11-03T21:48:27.176Z,99775.56
2022-11-03T21:50:54.349Z,99766.41
2022-11-03T21:53:21.356Z,99773.28
2022-11-03T21:55:49.642Z,99795.81
2022-11-03T21:58:16.671Z,99808.84
2022-11-03T22:00:47.655Z,99822.34
2022-11-03T22:03:14.951Z,99812.69
2022-11-03T22:05:42.270Z,99812.88
2022-11-03T22:08:11.200Z,99809.31
2022-11-03T22:10:40.423Z,99810.31
2022-11-03T22:13:07.755Z,99816.16
2022-11-03T22:15:53.589Z,99811.13
2022-11-03T22:18:20.478Z,99822.75
2022-11-03T22:21:07.019Z,99835.00
2022-11-03T22:23:52.591Z,99832.00
2022-11-03T22:26:38.482Z,99849.69
2022-11-03T22:29:23.942Z,99850.31
2022-11-03T22:31:50.897Z,99854.50
2022-11-03T22:34:39.857Z,99870.78
2022-11-03T22:37:09.259Z,99842.03
2022-11-03T22:39:54.701Z,99861.75
2022-11-03T22:42:40.971Z,99850.88
2022-11-03T22:45:28.883Z,99894.72
2022-11-03T22:47:57.617Z,99892.50
2022-11-03T22:50:26.813Z,99885.88
2022-11-03T22:52:53.820Z,99895.28
2022-11-03T22:55:24.521Z,99891.28
2022-11-03T22:57:54.458Z,99900.34
2022-11-03T23:00:22.997Z,99888.91
2022-11-03T23:02:53.957Z,99880.28
2022-11-03T23:05:21.103Z,99895.56
2022-11-03T23:07:50.106Z,99913.63
2022-11-03T23:10:18.382Z,99914.81
2022-11-03T23:12:45.433Z,99914.06
2022-11-03T23:15:31.278Z,99912.88
2022-11-03T23:18:21.412Z,99955.91
2022-11-03T23:21:07.021Z,99941.03
2022-11-03T23:24:00.420Z,99946.63
2022-11-03T23:26:30.874Z,99943.00
2022-11-03T23:29:03.310Z,99930.91
2022-11-03T23:31:33.912Z,99920.88
2022-11-03T23:34:01.250Z,99919.19
2022-11-03T23:36:31.198Z,99934.19
2022-11-03T23:38:59.916Z,99955.41
2022-11-03T23:41:28.203Z,99961.66
2022-11-03T23:43:55.977Z,99943.16
2022-11-03T23:46:44.010Z,99950.63
2022-11-03T23:49:11.375Z,99966.66
2022-11-03T23:51:39.188Z,99953.28
2022-11-03T23:54:10.847Z,99961.94
2022-11-03T23:56:59.952Z,99955.53
2022-11-03T23:59:29.556Z,99974.47
